sensor_id;sensor_type;location;lat;lon;timestamp;P1;durP1;ratioP1;P2;durP2;ratioP2
10497;SDS011;5296;51.060;13.750;2022-12-31T00:01:30;1.50;;;1.40;;
10497;SDS011;5296;51.060;13.750;2022-12-31T00:06:33;1.88;;;1.42;;
10497;SDS011;5296;51.060;13.750;2022-12-31T00:11:36;2.05;;;1.45;;
10497;SDS011;5296;51.060;13.750;2022-12-31T00:16:39;1.70;;;1.23;;
10497;SDS011;5296;51.060;13.750;2022-12-31T00:21:42;1.40;;;1.30;;
10497;SDS011;5296;51.060;13.750;2022-12-31T00:26:43;1.35;;;1.20;;
10497;SDS011;5296;51.060;13.750;2022-12-31T00:31:45;1.80;;;1.20;;
10497;SDS011;5296;51.060;13.750;2022-12-31T00:36:47;1.38;;;1.27;;
10497;SDS011;5296;51.060;13.750;2022-12-31T00:41:48;1.50;;;1.40;;
10497;SDS011;5296;51.060;13.750;2022-12-31T00:46:50;2.95;;;1.25;;
10497;SDS011;5296;51.060;13.750;2022-12-31T00:51:51;1.63;;;1.30;;
10497;SDS011;5296;51.060;13.750;2022-12-31T00:56:53;1.65;;;1.55;;
10497;SDS011;5296;51.060;13.750;2022-12-31T01:01:55;2.10;;;1.60;;
10497;SDS011;5296;51.060;13.750;2022-12-31T01:06:56;1.80;;;1.60;;
10497;SDS011;5296;51.060;13.750;2022-12-31T01:11:58;2.00;;;1.90;;
10497;SDS011;5296;51.060;13.750;2022-12-31T01:17:00;2.10;;;1.70;;
10497;SDS011;5296;51.060;13.750;2022-12-31T01:22:01;1.77;;;1.67;;
10497;SDS011;5296;51.060;13.750;2022-12-31T01:27:03;2.25;;;2.05;;
10497;SDS011;5296;51.060;13.750;2022-12-31T01:32:04;2.20;;;2.00;;
10497;SDS011;5296;51.060;13.750;2022-12-31T01:37:06;2.15;;;1.90;;
10497;SDS011;5296;51.060;13.750;2022-12-31T01:42:09;3.25;;;2.05;;
10497;SDS011;5296;51.060;13.750;2022-12-31T01:47:13;2.22;;;2.03;;
10497;SDS011;5296;51.060;13.750;2022-12-31T01:52:32;2.30;;;2.10;;
10497;SDS011;5296;51.060;13.750;2022-12-31T01:57:35;2.03;;;1.80;;
10497;SDS011;5296;51.060;13.750;2022-12-31T02:02:37;2.63;;;2.00;;
10497;SDS011;5296;51.060;13.750;2022-12-31T02:07:39;2.10;;;1.90;;
10497;SDS011;5296;51.060;13.750;2022-12-31T02:12:41;1.95;;;1.80;;
10497;SDS011;5296;51.060;13.750;2022-12-31T02:17:55;1.83;;;1.73;;
10497;SDS011;5296;51.060;13.750;2022-12-31T02:23:44;2.15;;;2.00;;
10497;SDS011;5296;51.060;13.750;2022-12-31T02:33:51;2.80;;;1.80;;
10497;SDS011;5296;51.060;13.750;2022-12-31T02:38:53;1.98;;;1.63;;
10497;SDS011;5296;51.060;13.750;2022-12-31T02:43:55;2.30;;;2.08;;
10497;SDS011;5296;51.060;13.750;2022-12-31T02:49:00;1.92;;;1.73;;
10497;SDS011;5296;51.060;13.750;2022-12-31T02:54:17;2.22;;;2.03;;
10497;SDS011;5296;51.060;13.750;2022-12-31T02:59:41;2.13;;;1.88;;
10497;SDS011;5296;51.060;13.750;2022-12-31T03:05:21;1.85;;;1.75;;
10497;SDS011;5296;51.060;13.750;2022-12-31T03:10:24;1.90;;;1.80;;
10497;SDS011;5296;51.060;13.750;2022-12-31T03:15:30;2.25;;;1.90;;
10497;SDS011;5296;51.060;13.750;2022-12-31T03:26:00;2.45;;;1.80;;
10497;SDS011;5296;51.060;13.750;2022-12-31T03:31:02;2.55;;;1.85;;
10497;SDS011;5296;51.060;13.750;2022-12-31T03:36:05;1.98;;;1.88;;
10497;SDS011;5296;51.060;13.750;2022-12-31T03:41:09;2.00;;;1.85;;
10497;SDS011;5296;51.060;13.750;2022-12-31T03:46:11;1.60;;;1.50;;
10497;SDS011;5296;51.060;13.750;2022-12-31T03:51:13;1.60;;;1.50;;
10497;SDS011;5296;51.060;13.750;2022-12-31T03:56:14;1.75;;;1.65;;
10497;SDS011;5296;51.060;13.750;2022-12-31T04:01:16;1.60;;;1.50;;
10497;SDS011;5296;51.060;13.750;2022-12-31T04:06:18;2.08;;;1.58;;
10497;SDS011;5296;51.060;13.750;2022-12-31T04:11:19;1.73;;;1.60;;
10497;SDS011;5296;51.060;13.750;2022-12-31T04:16:21;2.25;;;1.65;;
10497;SDS011;5296;51.060;13.750;2022-12-31T04:21:23;1.40;;;1.30;;
10497;SDS011;5296;51.060;13.750;2022-12-31T04:26:30;2.15;;;1.50;;
10497;SDS011;5296;51.060;13.750;2022-12-31T04:31:32;1.60;;;1.50;;
10497;SDS011;5296;51.060;13.750;2022-12-31T04:36:33;1.63;;;1.52;;
10497;SDS011;5296;51.060;13.750;2022-12-31T04:41:35;1.52;;;1.27;;
10497;SDS011;5296;51.060;13.750;2022-12-31T04:46:37;1.27;;;1.27;;
10497;SDS011;5296;51.060;13.750;2022-12-31T04:51:38;1.70;;;1.60;;
10497;SDS011;5296;51.060;13.750;2022-12-31T04:56:40;1.42;;;1.23;;
10497;SDS011;5296;51.060;13.750;2022-12-31T05:01:42;1.70;;;1.50;;
10497;SDS011;5296;51.060;13.750;2022-12-31T05:06:43;1.30;;;1.20;;
10497;SDS011;5296;51.060;13.750;2022-12-31T05:11:45;2.58;;;1.20;;
10497;SDS011;5296;51.060;13.750;2022-12-31T05:16:47;1.55;;;1.20;;
10497;SDS011;5296;51.060;13.750;2022-12-31T05:21:48;1.50;;;1.20;;
10497;SDS011;5296;51.060;13.750;2022-12-31T05:27:10;1.20;;;1.10;;
10497;SDS011;5296;51.060;13.750;2022-12-31T05:32:11;1.15;;;1.08;;
10497;SDS011;5296;51.060;13.750;2022-12-31T05:37:13;1.30;;;1.20;;
10497;SDS011;5296;51.060;13.750;2022-12-31T05:42:15;1.10;;;1.00;;
10497;SDS011;5296;51.060;13.750;2022-12-31T05:47:16;0.93;;;0.93;;
10497;SDS011;5296;51.060;13.750;2022-12-31T05:52:18;0.32;;;0.32;;
10497;SDS011;5296;51.060;13.750;2022-12-31T05:57:21;0.40;;;0.40;;
10497;SDS011;5296;51.060;13.750;2022-12-31T06:02:23;0.30;;;0.30;;
10497;SDS011;5296;51.060;13.750;2022-12-31T06:07:25;0.38;;;0.38;;
10497;SDS011;5296;51.060;13.750;2022-12-31T06:12:26;0.30;;;0.30;;
10497;SDS011;5296;51.060;13.750;2022-12-31T06:17:28;0.30;;;0.30;;
10497;SDS011;5296;51.060;13.750;2022-12-31T06:22:32;0.50;;;0.50;;
10497;SDS011;5296;51.060;13.750;2022-12-31T06:27:34;0.35;;;0.35;;
10497;SDS011;5296;51.060;13.750;2022-12-31T06:32:35;0.40;;;0.40;;
10497;SDS011;5296;51.060;13.750;2022-12-31T06:37:37;0.50;;;0.50;;
10497;SDS011;5296;51.060;13.750;2022-12-31T06:42:39;0.43;;;0.40;;
10497;SDS011;5296;51.060;13.750;2022-12-31T06:47:42;0.50;;;0.50;;
10497;SDS011;5296;51.060;13.750;2022-12-31T06:52:43;0.40;;;0.40;;
10497;SDS011;5296;51.060;13.750;2022-12-31T06:57:45;0.50;;;0.50;;
10497;SDS011;5296;51.060;13.750;2022-12-31T07:18:19;0.60;;;0.60;;
10497;SDS011;5296;51.060;13.750;2022-12-31T07:23:28;0.60;;;0.60;;
10497;SDS011;5296;51.060;13.750;2022-12-31T07:44:39;0.80;;;0.80;;
10497;SDS011;5296;51.060;13.750;2022-12-31T07:50:01;1.10;;;1.00;;
10497;SDS011;5296;51.060;13.750;2022-12-31T07:55:04;0.90;;;0.65;;
10497;SDS011;5296;51.060;13.750;2022-12-31T08:00:15;0.70;;;0.70;;
10497;SDS011;5296;51.060;13.750;2022-12-31T08:05:20;0.93;;;0.80;;
10497;SDS011;5296;51.060;13.750;2022-12-31T08:16:10;0.98;;;0.70;;
10497;SDS011;5296;51.060;13.750;2022-12-31T08:21:22;2.22;;;0.70;;
10497;SDS011;5296;51.060;13.750;2022-12-31T08:26:36;0.70;;;0.70;;
10497;SDS011;5296;51.060;13.750;2022-12-31T08:37:30;0.70;;;0.70;;
10497;SDS011;5296;51.060;13.750;2022-12-31T08:53:00;0.85;;;0.85;;
10497;SDS011;5296;51.060;13.750;2022-12-31T09:03:14;0.70;;;0.70;;
10497;SDS011;5296;51.060;13.750;2022-12-31T09:18:26;0.50;;;0.50;;
10497;SDS011;5296;51.060;13.750;2022-12-31T09:23:33;0.70;;;0.70;;
10497;SDS011;5296;51.060;13.750;2022-12-31T09:28:43;0.70;;;0.70;;
10497;SDS011;5296;51.060;13.750;2022-12-31T09:34:23;0.80;;;0.80;;
10497;SDS011;5296;51.060;13.750;2022-12-31T09:39:32;1.13;;;0.70;;
10497;SDS011;5296;51.060;13.750;2022-12-31T09:44:52;0.80;;;0.80;;
10497;SDS011;5296;51.060;13.750;2022-12-31T10:00:51;1.42;;;0.80;;
10497;SDS011;5296;51.060;13.750;2022-12-31T10:54:24;0.80;;;0.80;;
10497;SDS011;5296;51.060;13.750;2022-12-31T11:10:09;0.73;;;0.73;;
10497;SDS011;5296;51.060;13.750;2022-12-31T11:41:45;1.40;;;0.77;;
10497;SDS011;5296;51.060;13.750;2022-12-31T11:57:38;1.67;;;1.13;;
10497;SDS011;5296;51.060;13.750;2022-12-31T12:02:43;0.90;;;0.90;;
10497;SDS011;5296;51.060;13.750;2022-12-31T12:07:47;0.90;;;0.90;;
10497;SDS011;5296;51.060;13.750;2022-12-31T12:12:50;0.80;;;0.80;;
10497;SDS011;5296;51.060;13.750;2022-12-31T12:17:56;0.73;;;0.73;;
10497;SDS011;5296;51.060;13.750;2022-12-31T12:23:00;5.45;;;1.10;;
10497;SDS011;5296;51.060;13.750;2022-12-31T12:28:16;1.63;;;0.90;;
10497;SDS011;5296;51.060;13.750;2022-12-31T12:33:19;0.90;;;0.90;;
10497;SDS011;5296;51.060;13.750;2022-12-31T12:38:22;1.67;;;0.93;;
10497;SDS011;5296;51.060;13.750;2022-12-31T12:43:27;1.25;;;0.90;;
10497;SDS011;5296;51.060;13.750;2022-12-31T12:48:41;2.30;;;0.70;;
10497;SDS011;5296;51.060;13.750;2022-12-31T13:15:10;1.02;;;1.02;;
10497;SDS011;5296;51.060;13.750;2022-12-31T13:30:47;1.42;;;0.90;;
10497;SDS011;5296;51.060;13.750;2022-12-31T13:35:52;1.60;;;0.77;;
10497;SDS011;5296;51.060;13.750;2022-12-31T13:46:18;1.13;;;0.90;;
10497;SDS011;5296;51.060;13.750;2022-12-31T13:56:47;0.90;;;0.90;;
10497;SDS011;5296;51.060;13.750;2022-12-31T14:07:14;0.90;;;0.90;;
10497;SDS011;5296;51.060;13.750;2022-12-31T14:22:56;1.40;;;1.10;;
10497;SDS011;5296;51.060;13.750;2022-12-31T14:28:00;2.10;;;0.98;;
10497;SDS011;5296;51.060;13.750;2022-12-31T14:54:35;1.80;;;1.10;;
10497;SDS011;5296;51.060;13.750;2022-12-31T14:59:37;1.25;;;1.15;;
10497;SDS011;5296;51.060;13.750;2022-12-31T15:04:42;2.08;;;1.20;;
10497;SDS011;5296;51.060;13.750;2022-12-31T15:09:49;1.33;;;1.23;;
10497;SDS011;5296;51.060;13.750;2022-12-31T15:20:55;1.65;;;1.30;;
10497;SDS011;5296;51.060;13.750;2022-12-31T15:26:28;2.67;;;1.30;;
10497;SDS011;5296;51.060;13.750;2022-12-31T15:31:32;1.35;;;1.25;;
10497;SDS011;5296;51.060;13.750;2022-12-31T15:36:36;4.50;;;1.33;;
10497;SDS011;5296;51.060;13.750;2022-12-31T15:41:41;1.77;;;1.50;;
10497;SDS011;5296;51.060;13.750;2022-12-31T15:57:51;6.10;;;3.60;;
10497;SDS011;5296;51.060;13.750;2022-12-31T16:02:54;5.32;;;3.17;;
10497;SDS011;5296;51.060;13.750;2022-12-31T16:07:57;2.45;;;1.90;;
10497;SDS011;5296;51.060;13.750;2022-12-31T16:12:59;2.72;;;2.22;;
10497;SDS011;5296;51.060;13.750;2022-12-31T16:23:10;4.95;;;2.42;;
10497;SDS011;5296;51.060;13.750;2022-12-31T16:28:29;2.72;;;2.20;;
10497;SDS011;5296;51.060;13.750;2022-12-31T16:33:32;6.82;;;3.90;;
10497;SDS011;5296;51.060;13.750;2022-12-31T16:38:35;5.22;;;4.32;;
10497;SDS011;5296;51.060;13.750;2022-12-31T16:43:38;7.80;;;3.70;;
10497;SDS011;5296;51.060;13.750;2022-12-31T16:48:44;2.70;;;2.45;;
10497;SDS011;5296;51.060;13.750;2022-12-31T16:53:56;4.18;;;2.80;;
10497;SDS011;5296;51.060;13.750;2022-12-31T16:58:59;3.63;;;2.15;;
10497;SDS011;5296;51.060;13.750;2022-12-31T17:04:35;2.67;;;2.15;;
10497;SDS011;5296;51.060;13.750;2022-12-31T17:09:45;3.47;;;2.45;;
10497;SDS011;5296;51.060;13.750;2022-12-31T17:14:47;2.75;;;2.45;;
10497;SDS011;5296;51.060;13.750;2022-12-31T17:19:50;6.28;;;4.10;;
10497;SDS011;5296;51.060;13.750;2022-12-31T17:25:16;6.25;;;4.70;;
10497;SDS011;5296;51.060;13.750;2022-12-31T17:35:29;9.20;;;6.00;;
10497;SDS011;5296;51.060;13.750;2022-12-31T17:40:35;4.75;;;3.22;;
10497;SDS011;5296;51.060;13.750;2022-12-31T17:45:52;3.08;;;2.78;;
10497;SDS011;5296;51.060;13.750;2022-12-31T17:50:59;4.15;;;3.13;;
10497;SDS011;5296;51.060;13.750;2022-12-31T17:56:02;2.53;;;2.28;;
10497;SDS011;5296;51.060;13.750;2022-12-31T18:01:06;2.45;;;2.25;;
10497;SDS011;5296;51.060;13.750;2022-12-31T18:06:09;2.95;;;2.60;;
10497;SDS011;5296;51.060;13.750;2022-12-31T18:11:18;29.35;;;26.85;;
10497;SDS011;5296;51.060;13.750;2022-12-31T18:16:21;18.23;;;12.90;;
10497;SDS011;5296;51.060;13.750;2022-12-31T18:21:32;12.65;;;10.27;;
10497;SDS011;5296;51.060;13.750;2022-12-31T18:26:35;12.75;;;7.80;;
10497;SDS011;5296;51.060;13.750;2022-12-31T18:31:36;26.08;;;22.95;;
10497;SDS011;5296;51.060;13.750;2022-12-31T18:36:39;32.45;;;14.00;;
10497;SDS011;5296;51.060;13.750;2022-12-31T18:41:42;32.15;;;15.88;;
10497;SDS011;5296;51.060;13.750;2022-12-31T18:46:51;5.93;;;5.25;;
10497;SDS011;5296;51.060;13.750;2022-12-31T18:51:55;5.78;;;5.25;;
10497;SDS011;5296;51.060;13.750;2022-12-31T18:56:57;22.42;;;17.63;;
10497;SDS011;5296;51.060;13.750;2022-12-31T19:01:59;10.32;;;7.75;;
10497;SDS011;5296;51.060;13.750;2022-12-31T19:07:00;4.25;;;3.42;;
10497;SDS011;5296;51.060;13.750;2022-12-31T19:12:02;4.60;;;3.45;;
10497;SDS011;5296;51.060;13.750;2022-12-31T19:17:04;7.13;;;6.40;;
10497;SDS011;5296;51.060;13.750;2022-12-31T19:22:04;5.32;;;4.20;;
10497;SDS011;5296;51.060;13.750;2022-12-31T19:27:07;5.07;;;4.55;;
10497;SDS011;5296;51.060;13.750;2022-12-31T19:32:10;5.75;;;5.05;;
10497;SDS011;5296;51.060;13.750;2022-12-31T19:37:14;14.45;;;13.00;;
10497;SDS011;5296;51.060;13.750;2022-12-31T19:42:16;11.48;;;10.07;;
10497;SDS011;5296;51.060;13.750;2022-12-31T19:47:18;17.13;;;14.75;;
10497;SDS011;5296;51.060;13.750;2022-12-31T19:52:19;14.80;;;13.13;;
10497;SDS011;5296;51.060;13.750;2022-12-31T19:57:21;6.53;;;5.85;;
10497;SDS011;5296;51.060;13.750;2022-12-31T20:02:22;8.38;;;7.22;;
10497;SDS011;5296;51.060;13.750;2022-12-31T20:07:24;8.43;;;6.05;;
10497;SDS011;5296;51.060;13.750;2022-12-31T20:12:28;11.75;;;8.88;;
10497;SDS011;5296;51.060;13.750;2022-12-31T20:17:29;10.90;;;9.45;;
10497;SDS011;5296;51.060;13.750;2022-12-31T20:22:31;11.00;;;9.88;;
10497;SDS011;5296;51.060;13.750;2022-12-31T20:27:33;6.30;;;5.70;;
10497;SDS011;5296;51.060;13.750;2022-12-31T20:32:35;6.57;;;4.40;;
10497;SDS011;5296;51.060;13.750;2022-12-31T20:37:36;5.03;;;4.07;;
10497;SDS011;5296;51.060;13.750;2022-12-31T20:42:38;5.70;;;5.10;;
10497;SDS011;5296;51.060;13.750;2022-12-31T20:47:40;12.00;;;7.05;;
10497;SDS011;5296;51.060;13.750;2022-12-31T20:52:42;9.82;;;7.03;;
10497;SDS011;5296;51.060;13.750;2022-12-31T20:57:44;6.20;;;4.60;;
10497;SDS011;5296;51.060;13.750;2022-12-31T21:02:46;4.88;;;4.03;;
10497;SDS011;5296;51.060;13.750;2022-12-31T21:07:56;6.43;;;5.30;;
10497;SDS011;5296;51.060;13.750;2022-12-31T21:12:58;5.82;;;5.32;;
10497;SDS011;5296;51.060;13.750;2022-12-31T21:18:00;7.07;;;5.45;;
10497;SDS011;5296;51.060;13.750;2022-12-31T21:23:01;5.93;;;4.22;;
10497;SDS011;5296;51.060;13.750;2022-12-31T21:28:03;6.28;;;4.43;;
10497;SDS011;5296;51.060;13.750;2022-12-31T21:33:05;5.03;;;3.85;;
10497;SDS011;5296;51.060;13.750;2022-12-31T21:38:07;6.03;;;3.47;;
10497;SDS011;5296;51.060;13.750;2022-12-31T21:43:09;5.10;;;4.60;;
10497;SDS011;5296;51.060;13.750;2022-12-31T21:48:12;6.32;;;4.43;;
10497;SDS011;5296;51.060;13.750;2022-12-31T21:53:21;5.85;;;4.15;;
10497;SDS011;5296;51.060;13.750;2022-12-31T21:58:32;5.82;;;3.67;;
10497;SDS011;5296;51.060;13.750;2022-12-31T22:03:33;6.78;;;4.10;;
10497;SDS011;5296;51.060;13.750;2022-12-31T22:08:35;12.18;;;5.13;;
10497;SDS011;5296;51.060;13.750;2022-12-31T22:13:37;8.68;;;6.35;;
10497;SDS011;5296;51.060;13.750;2022-12-31T22:18:40;9.13;;;6.25;;
10497;SDS011;5296;51.060;13.750;2022-12-31T22:23:43;9.23;;;7.50;;
10497;SDS011;5296;51.060;13.750;2022-12-31T22:28:45;13.52;;;10.25;;
10497;SDS011;5296;51.060;13.750;2022-12-31T22:33:47;13.30;;;10.57;;
10497;SDS011;5296;51.060;13.750;2022-12-31T22:38:49;18.13;;;13.88;;
10497;SDS011;5296;51.060;13.750;2022-12-31T22:43:55;18.90;;;14.45;;
10497;SDS011;5296;51.060;13.750;2022-12-31T22:49:04;19.17;;;14.85;;
10497;SDS011;5296;51.060;13.750;2022-12-31T22:54:06;28.67;;;19.83;;
10497;SDS011;5296;51.060;13.750;2022-12-31T22:59:07;20.70;;;16.40;;
10497;SDS011;5296;51.060;13.750;2022-12-31T23:04:09;35.63;;;26.00;;
10497;SDS011;5296;51.060;13.750;2022-12-31T23:09:13;85.95;;;70.30;;
10497;SDS011;5296;51.060;13.750;2022-12-31T23:14:34;75.22;;;57.45;;
10497;SDS011;5296;51.060;13.750;2022-12-31T23:19:54;68.85;;;51.83;;
10497;SDS011;5296;51.060;13.750;2022-12-31T23:25:14;70.70;;;49.95;;
10497;SDS011;5296;51.060;13.750;2022-12-31T23:30:16;44.40;;;34.78;;
10497;SDS011;5296;51.060;13.750;2022-12-31T23:35:18;40.15;;;34.42;;
10497;SDS011;5296;51.060;13.750;2022-12-31T23:40:20;36.03;;;27.77;;
10497;SDS011;5296;51.060;13.750;2022-12-31T23:45:22;28.25;;;22.85;;
10497;SDS011;5296;51.060;13.750;2022-12-31T23:50:31;20.45;;;16.77;;
10497;SDS011;5296;51.060;13.750;2022-12-31T23:55:32;16.33;;;13.68;;
